• Join FlightAware (Why Join?)
  • Login
  • US Flag 
03:14AM EDT


 

Airport Tracker/Info


-or-


 

Live Flight TrackerFlight Track Log ✈ EGF4247 ✈ 21-Apr-2013 ✈ KBUF - KORD

Flight Track Log - Related Links

Times and Time Zones

All times are in EDT time to prevent confusion due to time zone crossing. See the EGF4247 flight status page for this flight to view local times or setup timezone preferences in your user account.

Time Position Orientation Groundspeed Altitude Reporting Facility
EDT Latitude Longitude Course Direction KTS MPH feet Rate Location/Type
03:45PM 42.9500 -78.7167 270° West 153 176 1,600  Level Buffalo TRACON
03:46PM 42.9833 -78.6833 36° Northeast 185 213 2,800 2,040 Climbing Buffalo TRACON
03:47PM 43.0000 -78.7667 285° West 236 272 5,200 2,160 Climbing Buffalo TRACON
03:48PM 42.9500 -79.0646 270° West  Level FlightAware Approximate
03:48PM 43.0000 -78.8500 270° West 267 307 7,200  Level Buffalo TRACON
03:49PM 42.9595 -79.1806 277° West  Level FlightAware Approximate
03:49PM 43.0000 -78.9500 270° West 272 313 9,500  Level Buffalo TRACON
03:50PM 42.9667 -79.2969 270° West  Level FlightAware Approximate
03:50PM 43.0167 -79.0500 283° West 274 315 11,400  Level Buffalo TRACON
03:51PM 43.0167 -79.1833 270° West 303 349 13,100 1,320 Climbing Buffalo TRACON
03:52PM 43.0167 -79.2833 270° West 319 367 14,000 720 Climbing Buffalo TRACON
03:52PM 43.0000 -79.3167 236° Southwest 320 368 14,000  Level Toronto Center
03:53PM 43.0167 -79.4500 280° West 360 414 14,000  Level Toronto Center
03:54PM 43.0167 -79.5833 270° West 370 426 14,000 420 Level Toronto Center
03:55PM 43.0167 -79.7167 270° West 370 426 14,900 1,140 Climbing Toronto Center
03:56PM 43.0167 -79.8667 270° West 360 414 16,300 1,440 Climbing Toronto Center
03:57PM 43.0167 -80.0000 270° West 350 403 17,800 1,200 Climbing Toronto Center
03:58PM 43.0167 -80.1167 270° West 350 403 18,700 1,200 Climbing Toronto Center
03:59PM 43.0167 -80.2500 270° West 340 391 20,200 1,440 Climbing Toronto Center
04:00PM 43.0167 -80.3833 270° West 340 391 21,600 1,440 Climbing Toronto Center
04:01PM 43.0333 -80.5000 281° West 340 391 23,100 1,500 Climbing Toronto Center
04:02PM 43.0333 -80.6333 270° West 340 391 24,600 1,500 Climbing Toronto Center
04:03PM 43.0333 -80.7667 270° West 330 380 26,100 1,500 Climbing Toronto Center
04:04PM 43.0167 -80.8833 259° West 330 380 27,600 1,380 Climbing Toronto Center
04:05PM 43.0167 -81.0000 270° West 320 368 28,900 1,260 Climbing Toronto Center
04:06PM 43.0167 -81.1333 270° West 320 368 30,200 1,140 Climbing Toronto Center
04:07PM 43.0167 -81.2500 270° West 320 368 31,200 900 Climbing Toronto Center
04:08PM 43.0167 -81.3667 270° West 320 368 32,000 360 Climbing Toronto Center
04:09PM 43.0167 -81.5000 270° West 340 391 32,000  Level Toronto Center
04:10PM 43.0167 -81.6667 270° West 370 426 32,000  Level Toronto Center
04:11PM 43.0167 -81.8000 270° West 380 437 32,000  Level Toronto Center
04:12PM 43.0000 -81.9333 260° West 390 449 32,000  Level Toronto Center
04:13PM 43.0000 -82.1000 270° West 390 449 32,000  Level Toronto Center
04:14PM 43.0000 -82.2333 270° West 390 449 32,000  Level Toronto Center
04:15PM 43.0000 -82.3833 270° West 390 449 32,000  Level Toronto Center
04:16PM 43.0000 -82.5500 270° West 390 449 32,000  Level Toronto Center
04:17PM 43.0028 -82.6300 273° West 385 443 32,000  Level Cleveland Center
04:18PM 42.9978 -82.7803 267° West 395 455 32,000  Level Cleveland Center
04:19PM 42.9886 -82.9303 265° West 400 460 32,000  Level Cleveland Center
04:20PM 42.9792 -83.0833 265° West 405 466 32,000  Level Cleveland Center
04:21PM 42.9717 -83.2306 266° West 405 466 32,000  Level Cleveland Center
04:22PM 42.9619 -83.3833 265° West 405 466 32,000  Level Cleveland Center
04:23PM 42.9517 -83.5361 265° West 405 466 32,000  Level Cleveland Center
04:24PM 42.9436 -83.6861 266° West 405 466 32,000  Level Cleveland Center
04:25PM 42.9331 -83.8417 265° West 405 466 32,000  Level Cleveland Center
04:26PM 42.9225 -83.9914 265° West 405 466 32,000  Level Cleveland Center
04:27PM 42.9139 -84.1439 266° West 405 466 32,000  Level Cleveland Center
04:29PM 42.8911 -84.4764 265° West 404 465 32,000  Level Chicago Center
04:30PM 42.8758 -84.6589 264° West 405 466 32,000  Level Chicago Center
04:31PM 42.8600 -84.8100 262° West 404 465 32,000  Level Chicago Center
04:32PM 42.8442 -84.9617 262° West 404 465 32,000 -660 Level Chicago Center
04:33PM 42.8283 -85.1108 262° West 401 461 30,700 -1,380 Descending Chicago Center
04:34PM 42.8117 -85.2625 262° West 405 466 29,200 -1,500 Descending Chicago Center
04:35PM 42.7947 -85.4144 261° West 405 466 27,600 -1,500 Descending Chicago Center
04:36PM 42.7756 -85.5650 260° West 404 465 26,100 -1,680 Descending Chicago Center
04:37PM 42.7417 -85.7472 256° West 409 471 24,200 -1,020 Descending Chicago Center
04:38PM 42.7136 -85.8994 256° West 412 474 24,000 -300 Descending Chicago Center
04:39PM 42.6867 -86.0475 256° West 405 466 23,600 -1,320 Descending Chicago Center
04:40PM 42.6594 -86.1944 256° West 401 461 21,300 -1,800 Descending Chicago Center
04:41PM 42.6328 -86.3364 256° West 389 448 20,000 -660 Descending Chicago Center
04:42PM 42.6072 -86.4761 256° West 383 441 20,000  Level Chicago Center
04:43PM 42.5806 -86.6153 255° West 382 440 20,000 -1,020 Level Chicago Center
04:44PM 42.5508 -86.7689 255° West 385 443 18,000 -2,040 Descending Chicago Center
04:45PM 42.5100 -86.9164 249° West 377 434 15,800 -2,340 Descending Chicago Center
04:46PM 42.4739 -87.0406 249° West 359 413 13,200 -2,400 Descending Chicago Center
04:47PM 42.4400 -87.1647 250° West 352 405 10,900 -1,560 Descending Chicago Center
04:49PM 42.4025 -87.2717 245° Southwest 322 371 10,000 -960 Descending Chicago Center
04:50PM 42.3717 -87.3600 245° Southwest 267 307 9,000 -1,020 Descending Chicago Center
04:51PM 42.3406 -87.4508 245° Southwest 255 293 7,900 -1,080 Descending Chicago Center
04:52PM 42.3053 -87.5458 243° Southwest 237 273 6,800 -1,140 Descending Chicago Center
04:53PM 42.2658 -87.5986 225° Southwest 204 235 5,600 -900 Descending Chicago Center
04:54PM 42.2281 -87.6411 220° Southwest 182 209 5,000 -300 Descending Chicago Center
04:55PM 42.1911 -87.6806 218° Southwest 170 196 5,000 -60 Level Chicago Center
04:56PM 42.1542 -87.7225 220° Southwest 172 198 4,900 -600 Descending Chicago Center
04:56PM 42.1167 -87.7500 209° Southwest 174 200 4,000 -1,320 Descending Chicago TRACON